sensor_id;sensor_type;location;lat;lon;timestamp;pressure;altitude;pressure_sealevel;temperature;humidity
76024;BME280;64719;52.124;6.226;2023-03-01T00:01:07;103277.56;;;-3.04;84.08
76024;BME280;64719;52.124;6.226;2023-03-01T00:03:34;103273.41;;;-3.09;83.67
76024;BME280;64719;52.124;6.226;2023-03-01T00:06:02;103268.81;;;-2.90;83.67
76024;BME280;64719;52.124;6.226;2023-03-01T00:08:29;103267.34;;;-3.11;83.12
76024;BME280;64719;52.124;6.226;2023-03-01T00:11:05;103271.88;;;-3.13;84.25
76024;BME280;64719;52.124;6.226;2023-03-01T00:13:32;103276.06;;;-3.25;84.17
76024;BME280;64719;52.124;6.226;2023-03-01T00:16:01;103268.78;;;-3.37;84.90
76024;BME280;64719;52.124;6.226;2023-03-01T00:18:28;103277.56;;;-3.36;85.11
76024;BME280;64719;52.124;6.226;2023-03-01T00:20:55;103277.06;;;-3.43;85.34
76024;BME280;64719;52.124;6.226;2023-03-01T00:23:22;103261.97;;;-3.58;85.73
76024;BME280;64719;52.124;6.226;2023-03-01T00:25:49;103262.13;;;-3.61;86.11
76024;BME280;64719;52.124;6.226;2023-03-01T00:28:18;103267.06;;;-3.70;85.97
76024;BME280;64719;52.124;6.226;2023-03-01T00:30:44;103268.53;;;-3.65;86.00
76024;BME280;64719;52.124;6.226;2023-03-01T00:33:11;103269.63;;;-3.69;86.57
76024;BME280;64719;52.124;6.226;2023-03-01T00:35:38;103267.16;;;-3.72;86.74
76024;BME280;64719;52.124;6.226;2023-03-01T00:38:05;103264.31;;;-3.69;86.84
76024;BME280;64719;52.124;6.226;2023-03-01T00:40:33;103264.00;;;-3.63;86.74
76024;BME280;64719;52.124;6.226;2023-03-01T00:43:00;103261.81;;;-3.55;86.45
76024;BME280;64719;52.124;6.226;2023-03-01T00:45:29;103263.06;;;-2.98;85.36
76024;BME280;64719;52.124;6.226;2023-03-01T00:47:56;103258.72;;;-2.99;83.80
76024;BME280;64719;52.124;6.226;2023-03-01T00:50:23;103255.09;;;-2.98;83.95
76024;BME280;64719;52.124;6.226;2023-03-01T00:52:52;103256.22;;;-3.02;83.67
76024;BME280;64719;52.124;6.226;2023-03-01T00:55:19;103250.31;;;-3.07;84.37
76024;BME280;64719;52.124;6.226;2023-03-01T00:57:45;103252.16;;;-3.40;84.84
76024;BME280;64719;52.124;6.226;2023-03-01T01:00:12;103255.09;;;-3.62;85.10
76024;BME280;64719;52.124;6.226;2023-03-01T01:02:40;103250.13;;;-3.35;84.87
76024;BME280;64719;52.124;6.226;2023-03-01T01:05:07;103249.88;;;-3.31;85.03
76024;BME280;64719;52.124;6.226;2023-03-01T01:07:34;103246.28;;;-2.99;83.96
76024;BME280;64719;52.124;6.226;2023-03-01T01:10:01;103241.97;;;-2.70;82.58
76024;BME280;64719;52.124;6.226;2023-03-01T01:12:28;103240.09;;;-2.84;81.98
76024;BME280;64719;52.124;6.226;2023-03-01T01:14:54;103235.47;;;-2.80;82.12
76024;BME280;64719;52.124;6.226;2023-03-01T01:17:21;103233.94;;;-2.84;81.86
76024;BME280;64719;52.124;6.226;2023-03-01T01:19:49;103232.66;;;-2.77;82.14
76024;BME280;64719;52.124;6.226;2023-03-01T01:22:15;103221.41;;;-2.82;81.88
76024;BME280;64719;52.124;6.226;2023-03-01T01:24:42;103225.19;;;-2.86;81.84
76024;BME280;64719;52.124;6.226;2023-03-01T01:27:09;103210.97;;;-2.85;82.23
76024;BME280;64719;52.124;6.226;2023-03-01T01:29:35;103218.44;;;-2.92;82.13
76024;BME280;64719;52.124;6.226;2023-03-01T01:32:03;103222.09;;;-2.79;82.14
76024;BME280;64719;52.124;6.226;2023-03-01T01:34:29;103220.25;;;-2.92;82.20
76024;BME280;64719;52.124;6.226;2023-03-01T01:36:57;103215.53;;;-3.03;82.06
76024;BME280;64719;52.124;6.226;2023-03-01T01:39:28;103214.59;;;-3.02;82.58
76024;BME280;64719;52.124;6.226;2023-03-01T01:41:54;103226.25;;;-2.89;82.38
76024;BME280;64719;52.124;6.226;2023-03-01T01:44:23;103220.66;;;-2.84;82.13
76024;BME280;64719;52.124;6.226;2023-03-01T01:46:52;103216.63;;;-2.76;81.86
76024;BME280;64719;52.124;6.226;2023-03-01T01:49:27;103218.69;;;-2.81;81.98
76024;BME280;64719;52.124;6.226;2023-03-01T01:52:02;103212.75;;;-2.70;81.30
76024;BME280;64719;52.124;6.226;2023-03-01T01:54:38;103228.63;;;-2.84;80.98
76024;BME280;64719;52.124;6.226;2023-03-01T01:57:09;103214.09;;;-3.08;81.84
76024;BME280;64719;52.124;6.226;2023-03-01T01:59:39;103218.78;;;-3.29;82.81
76024;BME280;64719;52.124;6.226;2023-03-01T02:02:08;103217.84;;;-3.12;82.83
76024;BME280;64719;52.124;6.226;2023-03-01T02:04:35;103221.19;;;-3.09;82.75
76024;BME280;64719;52.124;6.226;2023-03-01T02:07:07;103216.22;;;-3.15;83.04
76024;BME280;64719;52.124;6.226;2023-03-01T02:09:35;103214.19;;;-3.10;82.73
76024;BME280;64719;52.124;6.226;2023-03-01T02:12:03;103213.41;;;-2.96;82.46
76024;BME280;64719;52.124;6.226;2023-03-01T02:14:30;103203.34;;;-2.91;82.06
76024;BME280;64719;52.124;6.226;2023-03-01T02:16:57;103204.47;;;-2.80;82.09
76024;BME280;64719;52.124;6.226;2023-03-01T02:19:35;103200.28;;;-3.15;82.07
76024;BME280;64719;52.124;6.226;2023-03-01T02:22:11;103198.25;;;-3.25;82.99
76024;BME280;64719;52.124;6.226;2023-03-01T02:24:49;103194.91;;;-3.13;82.76
76024;BME280;64719;52.124;6.226;2023-03-01T02:27:22;103199.69;;;-3.04;83.03
76024;BME280;64719;52.124;6.226;2023-03-01T02:29:53;103199.44;;;-3.00;82.63
76024;BME280;64719;52.124;6.226;2023-03-01T02:32:20;103197.63;;;-3.15;82.41
76024;BME280;64719;52.124;6.226;2023-03-01T02:34:50;103194.13;;;-3.46;83.05
76024;BME280;64719;52.124;6.226;2023-03-01T02:37:18;103191.88;;;-3.54;84.58
76024;BME280;64719;52.124;6.226;2023-03-01T02:39:53;103193.00;;;-3.58;84.96
76024;BME280;64719;52.124;6.226;2023-03-01T02:42:26;103188.81;;;-3.46;84.48
76024;BME280;64719;52.124;6.226;2023-03-01T02:44:57;103186.41;;;-3.51;84.66
76024;BME280;64719;52.124;6.226;2023-03-01T02:47:24;103191.53;;;-3.63;85.21
76024;BME280;64719;52.124;6.226;2023-03-01T02:49:50;103187.66;;;-3.73;85.20
76024;BME280;64719;52.124;6.226;2023-03-01T02:52:30;103183.81;;;-3.68;85.69
76024;BME280;64719;52.124;6.226;2023-03-01T02:55:02;103179.97;;;-3.78;86.46
76024;BME280;64719;52.124;6.226;2023-03-01T02:57:31;103178.91;;;-3.76;86.34
76024;BME280;64719;52.124;6.226;2023-03-01T03:00:03;103171.06;;;-3.77;86.38
76024;BME280;64719;52.124;6.226;2023-03-01T03:02:32;103177.00;;;-3.89;86.72
76024;BME280;64719;52.124;6.226;2023-03-01T03:05:07;103170.50;;;-3.99;86.85
76024;BME280;64719;52.124;6.226;2023-03-01T03:07:35;103176.47;;;-3.96;87.17
76024;BME280;64719;52.124;6.226;2023-03-01T03:10:04;103179.66;;;-3.89;87.81
76024;BME280;64719;52.124;6.226;2023-03-01T03:12:36;103177.41;;;-3.97;87.59
76024;BME280;64719;52.124;6.226;2023-03-01T03:15:06;103175.34;;;-4.07;87.85
76024;BME280;64719;52.124;6.226;2023-03-01T03:17:34;103162.94;;;-4.07;87.83
76024;BME280;64719;52.124;6.226;2023-03-01T03:20:01;103165.75;;;-4.10;88.47
76024;BME280;64719;52.124;6.226;2023-03-01T03:22:28;103161.69;;;-4.00;88.62
76024;BME280;64719;52.124;6.226;2023-03-01T03:24:54;103159.59;;;-4.10;88.65
76024;BME280;64719;52.124;6.226;2023-03-01T03:27:21;103151.66;;;-4.27;88.47
76024;BME280;64719;52.124;6.226;2023-03-01T03:29:47;103164.84;;;-4.26;88.51
76024;BME280;64719;52.124;6.226;2023-03-01T03:32:15;103158.38;;;-4.20;89.17
76024;BME280;64719;52.124;6.226;2023-03-01T03:34:42;103159.13;;;-4.18;88.73
76024;BME280;64719;52.124;6.226;2023-03-01T03:37:09;103150.75;;;-4.26;89.32
76024;BME280;64719;52.124;6.226;2023-03-01T03:39:55;103158.94;;;-4.31;89.32
76024;BME280;64719;52.124;6.226;2023-03-01T03:42:22;103167.88;;;-4.16;88.92
76024;BME280;64719;52.124;6.226;2023-03-01T03:44:48;103162.41;;;-4.13;88.51
76024;BME280;64719;52.124;6.226;2023-03-01T03:47:16;103159.91;;;-3.99;88.84
76024;BME280;64719;52.124;6.226;2023-03-01T03:49:43;103165.19;;;-3.99;88.25
76024;BME280;64719;52.124;6.226;2023-03-01T03:52:09;103160.66;;;-3.97;88.26
76024;BME280;64719;52.124;6.226;2023-03-01T03:54:38;103162.38;;;-3.96;88.13
76024;BME280;64719;52.124;6.226;2023-03-01T03:57:05;103164.16;;;-3.97;88.40
76024;BME280;64719;52.124;6.226;2023-03-01T03:59:32;103160.47;;;-3.94;88.54
76024;BME280;64719;52.124;6.226;2023-03-01T04:01:58;103158.44;;;-3.89;88.29
76024;BME280;64719;52.124;6.226;2023-03-01T04:04:26;103160.22;;;-3.90;88.37
76024;BME280;64719;52.124;6.226;2023-03-01T04:06:53;103155.19;;;-3.94;88.42
76024;BME280;64719;52.124;6.226;2023-03-01T04:09:20;103159.28;;;-4.04;88.70
76024;BME280;64719;52.124;6.226;2023-03-01T04:11:46;103152.69;;;-3.97;88.42
76024;BME280;64719;52.124;6.226;2023-03-01T04:14:12;103148.22;;;-3.80;88.23
76024;BME280;64719;52.124;6.226;2023-03-01T04:16:39;103151.81;;;-3.81;87.82
76024;BME280;64719;52.124;6.226;2023-03-01T04:19:06;103155.47;;;-3.83;87.91
76024;BME280;64719;52.124;6.226;2023-03-01T04:21:36;103156.03;;;-3.94;88.03
76024;BME280;64719;52.124;6.226;2023-03-01T04:24:03;103152.69;;;-3.97;88.27
76024;BME280;64719;52.124;6.226;2023-03-01T04:26:29;103154.72;;;-3.85;88.88
76024;BME280;64719;52.124;6.226;2023-03-01T04:28:56;103151.78;;;-3.96;88.00
76024;BME280;64719;52.124;6.226;2023-03-01T04:31:22;103145.78;;;-4.00;88.65
76024;BME280;64719;52.124;6.226;2023-03-01T04:33:51;103136.06;;;-4.16;88.56
76024;BME280;64719;52.124;6.226;2023-03-01T04:36:20;103130.59;;;-3.81;88.86
76024;BME280;64719;52.124;6.226;2023-03-01T04:38:48;103137.22;;;-3.56;88.19
76024;BME280;64719;52.124;6.226;2023-03-01T04:41:16;103128.38;;;-3.57;87.78
76024;BME280;64719;52.124;6.226;2023-03-01T04:43:43;103133.94;;;-3.61;87.92
76024;BME280;64719;52.124;6.226;2023-03-01T04:46:11;103124.53;;;-3.67;87.25
76024;BME280;64719;52.124;6.226;2023-03-01T04:48:40;103131.00;;;-3.88;87.62
76024;BME280;64719;52.124;6.226;2023-03-01T04:51:07;103116.81;;;-4.20;88.11
76024;BME280;64719;52.124;6.226;2023-03-01T04:53:34;103125.41;;;-4.32;88.41
76024;BME280;64719;52.124;6.226;2023-03-01T04:56:03;103115.38;;;-4.42;88.47
76024;BME280;64719;52.124;6.226;2023-03-01T04:58:30;103113.03;;;-4.48;89.71
76024;BME280;64719;52.124;6.226;2023-03-01T05:00:56;103110.47;;;-4.50;89.59
76024;BME280;64719;52.124;6.226;2023-03-01T05:03:23;103108.28;;;-4.42;90.17
76024;BME280;64719;52.124;6.226;2023-03-01T05:05:51;103108.31;;;-4.59;89.75
76024;BME280;64719;52.124;6.226;2023-03-01T05:08:19;103105.13;;;-4.65;89.71
76024;BME280;64719;52.124;6.226;2023-03-01T05:10:48;103105.38;;;-4.70;90.02
76024;BME280;64719;52.124;6.226;2023-03-01T05:13:17;103099.53;;;-4.76;89.88
76024;BME280;64719;52.124;6.226;2023-03-01T05:15:47;103095.84;;;-4.74;90.59
76024;BME280;64719;52.124;6.226;2023-03-01T05:18:15;103096.25;;;-4.64;90.78
76024;BME280;64719;52.124;6.226;2023-03-01T05:20:41;103089.84;;;-4.60;90.62
76024;BME280;64719;52.124;6.226;2023-03-01T05:23:08;103095.03;;;-4.74;90.26
76024;BME280;64719;52.124;6.226;2023-03-01T05:25:34;103088.22;;;-4.80;90.62
76024;BME280;64719;52.124;6.226;2023-03-01T05:28:06;103092.22;;;-4.88;91.10
76024;BME280;64719;52.124;6.226;2023-03-01T05:30:34;103087.31;;;-4.96;90.97
76024;BME280;64719;52.124;6.226;2023-03-01T05:33:01;103082.03;;;-4.79;91.18
76024;BME280;64719;52.124;6.226;2023-03-01T05:35:27;103082.84;;;-4.78;91.19
76024;BME280;64719;52.124;6.226;2023-03-01T05:37:54;103081.16;;;-4.62;91.27
76024;BME280;64719;52.124;6.226;2023-03-01T05:40:23;103081.63;;;-4.88;91.08
76024;BME280;64719;52.124;6.226;2023-03-01T05:42:52;103077.72;;;-4.81;91.23
76024;BME280;64719;52.124;6.226;2023-03-01T05:45:19;103076.16;;;-4.85;91.22
76024;BME280;64719;52.124;6.226;2023-03-01T05:47:49;103079.06;;;-4.90;90.81
76024;BME280;64719;52.124;6.226;2023-03-01T05:50:17;103075.94;;;-4.98;91.33
76024;BME280;64719;52.124;6.226;2023-03-01T05:52:46;103072.91;;;-5.07;91.18
76024;BME280;64719;52.124;6.226;2023-03-01T05:55:14;103080.13;;;-5.11;91.66
76024;BME280;64719;52.124;6.226;2023-03-01T05:57:40;103067.97;;;-5.15;90.66
76024;BME280;64719;52.124;6.226;2023-03-01T06:00:08;103074.91;;;-5.12;91.66
76024;BME280;64719;52.124;6.226;2023-03-01T06:02:35;103073.59;;;-5.04;91.75
76024;BME280;64719;52.124;6.226;2023-03-01T06:05:05;103070.25;;;-4.90;91.52
76024;BME280;64719;52.124;6.226;2023-03-01T06:07:31;103069.34;;;-4.89;91.73
76024;BME280;64719;52.124;6.226;2023-03-01T06:09:58;103068.94;;;-4.99;91.57
76024;BME280;64719;52.124;6.226;2023-03-01T06:12:25;103071.72;;;-5.19;91.59
76024;BME280;64719;52.124;6.226;2023-03-01T06:14:51;103070.78;;;-5.18;91.52
76024;BME280;64719;52.124;6.226;2023-03-01T06:17:18;103074.47;;;-5.03;91.85
76024;BME280;64719;52.124;6.226;2023-03-01T06:19:44;103075.31;;;-4.86;91.67
76024;BME280;64719;52.124;6.226;2023-03-01T06:22:13;103073.75;;;-4.73;91.62
76024;BME280;64719;52.124;6.226;2023-03-01T06:24:40;103069.38;;;-4.74;91.76
76024;BME280;64719;52.124;6.226;2023-03-01T06:27:06;103063.84;;;-4.69;91.84
76024;BME280;64719;52.124;6.226;2023-03-01T06:29:33;103070.41;;;-4.59;92.28
76024;BME280;64719;52.124;6.226;2023-03-01T06:32:00;103076.75;;;-4.63;91.93
76024;BME280;64719;52.124;6.226;2023-03-01T06:34:26;103066.88;;;-4.60;92.31
76024;BME280;64719;52.124;6.226;2023-03-01T06:36:53;103076.56;;;-4.76;91.08
76024;BME280;64719;52.124;6.226;2023-03-01T06:39:20;103071.50;;;-4.80;91.34
76024;BME280;64719;52.124;6.226;2023-03-01T06:41:47;103075.47;;;-4.72;91.28
76024;BME280;64719;52.124;6.226;2023-03-01T06:44:13;103081.81;;;-4.59;91.42
76024;BME280;64719;52.124;6.226;2023-03-01T06:46:40;103082.69;;;-4.58;91.65
76024;BME280;64719;52.124;6.226;2023-03-01T06:49:06;103080.84;;;-4.56;91.61
76024;BME280;64719;52.124;6.226;2023-03-01T06:51:35;103088.78;;;-4.56;91.15
76024;BME280;64719;52.124;6.226;2023-03-01T06:54:02;103085.81;;;-4.50;91.04
76024;BME280;64719;52.124;6.226;2023-03-01T06:56:30;103093.53;;;-4.30;91.88
76024;BME280;64719;52.124;6.226;2023-03-01T06:58:56;103091.13;;;-4.02;91.70
76024;BME280;64719;52.124;6.226;2023-03-01T07:01:23;103092.31;;;-4.08;90.84
76024;BME280;64719;52.124;6.226;2023-03-01T07:03:49;103086.16;;;-4.08;91.05
76024;BME280;64719;52.124;6.226;2023-03-01T07:06:16;103087.88;;;-4.07;90.76
76024;BME280;64719;52.124;6.226;2023-03-01T07:08:43;103091.91;;;-3.85;90.75
76024;BME280;64719;52.124;6.226;2023-03-01T07:11:09;103090.66;;;-3.78;90.13
76024;BME280;64719;52.124;6.226;2023-03-01T07:13:37;103098.84;;;-3.66;89.79
76024;BME280;64719;52.124;6.226;2023-03-01T07:16:04;103085.44;;;-3.48;89.75
76024;BME280;64719;52.124;6.226;2023-03-01T07:18:31;103085.69;;;-3.37;89.24
76024;BME280;64719;52.124;6.226;2023-03-01T07:20:57;103087.22;;;-3.03;88.44
76024;BME280;64719;52.124;6.226;2023-03-01T07:23:24;103080.69;;;-2.68;87.87
76024;BME280;64719;52.124;6.226;2023-03-01T07:25:52;103085.63;;;-1.37;86.33
76024;BME280;64719;52.124;6.226;2023-03-01T07:28:19;103091.03;;;1.34;79.46
76024;BME280;64719;52.124;6.226;2023-03-01T07:30:47;103078.66;;;2.97;72.35
76024;BME280;64719;52.124;6.226;2023-03-01T07:33:13;103086.91;;;4.17;65.67
76024;BME280;64719;52.124;6.226;2023-03-01T07:35:40;103077.56;;;6.21;59.34
76024;BME280;64719;52.124;6.226;2023-03-01T07:38:06;103075.66;;;7.38;55.25
76024;BME280;64719;52.124;6.226;2023-03-01T07:40:33;103083.91;;;7.36;53.43
76024;BME280;64719;52.124;6.226;2023-03-01T07:43:00;103081.66;;;7.14;52.03
76024;BME280;64719;52.124;6.226;2023-03-01T07:45:28;103081.44;;;7.08;51.35
76024;BME280;64719;52.124;6.226;2023-03-01T07:47:56;103086.66;;;7.88;49.44
76024;BME280;64719;52.124;6.226;2023-03-01T07:50:22;103085.97;;;8.45;48.17
76024;BME280;64719;52.124;6.226;2023-03-01T07:52:50;103084.28;;;9.17;45.61
76024;BME280;64719;52.124;6.226;2023-03-01T07:55:16;103083.63;;;9.32;46.45
76024;BME280;64719;52.124;6.226;2023-03-01T07:57:43;103073.78;;;9.55;44.20
76024;BME280;64719;52.124;6.226;2023-03-01T08:00:11;103085.00;;;9.19;44.76
76024;BME280;64719;52.124;6.226;2023-03-01T08:02:38;103077.19;;;9.65;41.22
76024;BME280;64719;52.124;6.226;2023-03-01T08:05:07;103074.88;;;10.63;41.52
76024;BME280;64719;52.124;6.226;2023-03-01T08:07:34;103075.72;;;11.39;39.92
76024;BME280;64719;52.124;6.226;2023-03-01T08:10:00;103083.00;;;11.84;38.77
76024;BME280;64719;52.124;6.226;2023-03-01T08:12:27;103095.00;;;12.04;36.81
76024;BME280;64719;52.124;6.226;2023-03-01T08:14:54;103097.84;;;11.96;37.49
76024;BME280;64719;52.124;6.226;2023-03-01T08:17:20;103101.59;;;12.53;36.39
76024;BME280;64719;52.124;6.226;2023-03-01T08:19:47;103090.16;;;12.28;35.73
76024;BME280;64719;52.124;6.226;2023-03-01T08:22:15;103091.38;;;13.26;36.56
76024;BME280;64719;52.124;6.226;2023-03-01T08:24:41;103091.75;;;14.20;34.65
76024;BME280;64719;52.124;6.226;2023-03-01T08:27:08;103093.66;;;13.02;34.01
76024;BME280;64719;52.124;6.226;2023-03-01T08:29:35;103082.19;;;14.85;32.12
76024;BME280;64719;52.124;6.226;2023-03-01T08:32:01;103077.75;;;15.50;31.76
76024;BME280;64719;52.124;6.226;2023-03-01T08:34:28;103084.66;;;14.26;33.68
76024;BME280;64719;52.124;6.226;2023-03-01T08:36:56;103080.53;;;14.84;32.77
76024;BME280;64719;52.124;6.226;2023-03-01T08:39:24;103071.88;;;14.80;31.26
76024;BME280;64719;52.124;6.226;2023-03-01T08:41:50;103073.09;;;15.38;30.98
76024;BME280;64719;52.124;6.226;2023-03-01T08:44:17;103066.88;;;16.53;29.91
76024;BME280;64719;52.124;6.226;2023-03-01T08:46:44;103074.75;;;15.39;29.42
76024;BME280;64719;52.124;6.226;2023-03-01T08:49:14;103071.84;;;15.53;30.75
76024;BME280;64719;52.124;6.226;2023-03-01T08:51:41;103077.75;;;15.50;30.55
76024;BME280;64719;52.124;6.226;2023-03-01T08:54:11;103067.38;;;15.98;30.75
76024;BME280;64719;52.124;6.226;2023-03-01T08:56:40;103063.38;;;16.13;30.14
76024;BME280;64719;52.124;6.226;2023-03-01T08:59:07;103064.00;;;17.17;27.41
76024;BME280;64719;52.124;6.226;2023-03-01T09:01:33;103060.09;;;17.31;27.95
76024;BME280;64719;52.124;6.226;2023-03-01T09:04:00;103052.19;;;17.72;27.00
76024;BME280;64719;52.124;6.226;2023-03-01T09:06:26;103051.44;;;18.07;27.39
76024;BME280;64719;52.124;6.226;2023-03-01T09:08:53;103051.06;;;16.49;27.73
76024;BME280;64719;52.124;6.226;2023-03-01T09:11:21;103056.44;;;17.43;27.09
76024;BME280;64719;52.124;6.226;2023-03-01T09:13:50;103048.25;;;16.62;27.64
76024;BME280;64719;52.124;6.226;2023-03-01T09:16:18;103045.25;;;18.12;26.50
76024;BME280;64719;52.124;6.226;2023-03-01T09:18:48;103052.88;;;17.05;26.52
76024;BME280;64719;52.124;6.226;2023-03-01T09:21:16;103058.53;;;16.79;27.75
76024;BME280;64719;52.124;6.226;2023-03-01T09:23:45;103057.72;;;17.65;26.61
76024;BME280;64719;52.124;6.226;2023-03-01T09:26:14;103055.81;;;16.73;27.24
76024;BME280;64719;52.124;6.226;2023-03-01T09:28:42;103049.47;;;17.65;26.34
76024;BME280;64719;52.124;6.226;2023-03-01T09:31:11;103047.06;;;16.89;26.99
76024;BME280;64719;52.124;6.226;2023-03-01T09:33:39;103048.47;;;17.04;26.93
76024;BME280;64719;52.124;6.226;2023-03-01T09:36:07;103050.63;;;16.52;26.88
76024;BME280;64719;52.124;6.226;2023-03-01T09:38:34;103045.25;;;16.76;26.14
76024;BME280;64719;52.124;6.226;2023-03-01T09:41:01;103043.91;;;19.69;24.01
76024;BME280;64719;52.124;6.226;2023-03-01T09:43:33;103040.25;;;17.84;25.19
76024;BME280;64719;52.124;6.226;2023-03-01T09:46:04;103034.81;;;17.22;24.20
76024;BME280;64719;52.124;6.226;2023-03-01T09:48:49;103027.50;;;18.08;24.33
76024;BME280;64719;52.124;6.226;2023-03-01T09:51:19;103030.69;;;17.07;24.39
76024;BME280;64719;52.124;6.226;2023-03-01T09:53:47;103020.88;;;16.55;25.60
76024;BME280;64719;52.124;6.226;2023-03-01T09:56:19;103016.44;;;16.98;25.12
76024;BME280;64719;52.124;6.226;2023-03-01T09:58:51;103014.09;;;17.26;24.60
76024;BME280;64719;52.124;6.226;2023-03-01T10:01:30;103005.63;;;18.01;23.33
76024;BME280;64719;52.124;6.226;2023-03-01T10:04:32;103002.63;;;16.80;24.51
76024;BME280;64719;52.124;6.226;2023-03-01T10:07:17;103011.53;;;17.80;23.33
76024;BME280;64719;52.124;6.226;2023-03-01T10:09:47;103006.47;;;18.38;23.67
76024;BME280;64719;52.124;6.226;2023-03-01T10:12:16;103007.13;;;18.34;23.15
76024;BME280;64719;52.124;6.226;2023-03-01T10:14:50;102998.69;;;18.83;21.80
76024;BME280;64719;52.124;6.226;2023-03-01T10:17:25;103005.94;;;17.20;22.71
76024;BME280;64719;52.124;6.226;2023-03-01T10:19:55;102987.72;;;17.74;23.25
76024;BME280;64719;52.124;6.226;2023-03-01T10:22:25;102990.81;;;18.20;22.73
76024;BME280;64719;52.124;6.226;2023-03-01T10:24:54;102991.09;;;17.27;22.88
76024;BME280;64719;52.124;6.226;2023-03-01T10:27:23;102982.38;;;18.34;22.22
76024;BME280;64719;52.124;6.226;2023-03-01T10:29:56;102988.00;;;17.42;23.35
76024;BME280;64719;52.124;6.226;2023-03-01T10:32:26;102977.22;;;18.73;22.52
76024;BME280;64719;52.124;6.226;2023-03-01T10:34:52;102969.69;;;18.80;21.56
76024;BME280;64719;52.124;6.226;2023-03-01T10:37:21;102972.38;;;17.67;23.19
76024;BME280;64719;52.124;6.226;2023-03-01T10:39:57;102970.94;;;18.84;21.03
76024;BME280;64719;52.124;6.226;2023-03-01T10:42:30;102959.16;;;18.00;21.72
76024;BME280;64719;52.124;6.226;2023-03-01T10:44:58;102957.66;;;17.12;23.22
76024;BME280;64719;52.124;6.226;2023-03-01T10:47:41;102963.38;;;18.50;21.98
76024;BME280;64719;52.124;6.226;2023-03-01T10:50:19;102968.25;;;16.78;23.22
76024;BME280;64719;52.124;6.226;2023-03-01T10:52:58;102959.16;;;16.84;23.41
76024;BME280;64719;52.124;6.226;2023-03-01T10:55:30;102957.75;;;16.68;24.09
76024;BME280;64719;52.124;6.226;2023-03-01T10:58:07;102960.03;;;17.02;23.50
76024;BME280;64719;52.124;6.226;2023-03-01T11:00:46;102956.28;;;15.64;24.75
76024;BME280;64719;52.124;6.226;2023-03-01T11:03:14;102950.28;;;14.43;26.67
76024;BME280;64719;52.124;6.226;2023-03-01T11:05:55;102955.63;;;13.77;27.36
76024;BME280;64719;52.124;6.226;2023-03-01T11:08:48;102953.63;;;13.98;26.83
76024;BME280;64719;52.124;6.226;2023-03-01T11:11:30;102950.34;;;14.16;26.85
76024;BME280;64719;52.124;6.226;2023-03-01T11:13:58;102958.16;;;15.05;26.46
76024;BME280;64719;52.124;6.226;2023-03-01T11:16:32;102957.75;;;13.81;27.92
76024;BME280;64719;52.124;6.226;2023-03-01T11:19:14;102958.44;;;14.37;27.40
76024;BME280;64719;52.124;6.226;2023-03-01T11:21:44;102959.03;;;12.81;28.61
76024;BME280;64719;52.124;6.226;2023-03-01T11:24:15;102950.28;;;13.07;29.60
76024;BME280;64719;52.124;6.226;2023-03-01T11:26:47;102941.84;;;13.91;28.55
76024;BME280;64719;52.124;6.226;2023-03-01T11:29:25;102951.31;;;13.61;29.11
76024;BME280;64719;52.124;6.226;2023-03-01T11:31:54;102938.53;;;14.56;27.83
76024;BME280;64719;52.124;6.226;2023-03-01T11:34:32;102938.28;;;13.02;31.19
76024;BME280;64719;52.124;6.226;2023-03-01T11:37:11;102937.41;;;12.59;31.34
76024;BME280;64719;52.124;6.226;2023-03-01T11:39:45;102932.44;;;14.00;29.86
76024;BME280;64719;52.124;6.226;2023-03-01T11:42:15;102933.44;;;11.32;33.52
76024;BME280;64719;52.124;6.226;2023-03-01T11:44:46;102932.31;;;11.99;32.33
76024;BME280;64719;52.124;6.226;2023-03-01T11:47:22;102931.41;;;11.63;33.13
76024;BME280;64719;52.124;6.226;2023-03-01T11:50:06;102928.84;;;11.47;33.02
76024;BME280;64719;52.124;6.226;2023-03-01T11:52:43;102929.41;;;11.05;32.89
76024;BME280;64719;52.124;6.226;2023-03-01T11:55:26;102927.00;;;10.51;34.13
76024;BME280;64719;52.124;6.226;2023-03-01T11:58:18;102927.09;;;11.69;32.29
76024;BME280;64719;52.124;6.226;2023-03-01T12:00:58;102927.75;;;12.56;29.56
76024;BME280;64719;52.124;6.226;2023-03-01T12:03:32;102917.94;;;13.59;29.10
76024;BME280;64719;52.124;6.226;2023-03-01T12:09:21;102923.78;;;13.56;28.14
76024;BME280;64719;52.124;6.226;2023-03-01T12:12:03;102927.22;;;12.46;30.25
76024;BME280;64719;52.124;6.226;2023-03-01T12:14:48;102928.78;;;12.34;31.06
76024;BME280;64719;52.124;6.226;2023-03-01T12:20:14;102915.50;;;13.71;28.52
76024;BME280;64719;52.124;6.226;2023-03-01T12:22:52;102922.41;;;14.14;27.43
76024;BME280;64719;52.124;6.226;2023-03-01T12:25:29;102915.16;;;13.87;27.42
76024;BME280;64719;52.124;6.226;2023-03-01T12:28:20;102908.19;;;14.25;26.51
76024;BME280;64719;52.124;6.226;2023-03-01T12:31:09;102904.28;;;15.64;25.21
76024;BME280;64719;52.124;6.226;2023-03-01T12:33:44;102895.84;;;16.10;24.40
76024;BME280;64719;52.124;6.226;2023-03-01T12:36:34;102896.50;;;15.22;25.42
76024;BME280;64719;52.124;6.226;2023-03-01T12:39:15;102894.59;;;13.91;26.02
76024;BME280;64719;52.124;6.226;2023-03-01T12:41:48;102896.72;;;14.82;25.26
76024;BME280;64719;52.124;6.226;2023-03-01T12:44:30;102888.69;;;14.34;26.52
76024;BME280;64719;52.124;6.226;2023-03-01T12:47:18;102886.53;;;13.36;27.95
76024;BME280;64719;52.124;6.226;2023-03-01T12:49:50;102874.44;;;13.98;27.72
76024;BME280;64719;52.124;6.226;2023-03-01T12:52:23;102876.69;;;15.59;25.77
76024;BME280;64719;52.124;6.226;2023-03-01T12:54:56;102871.88;;;16.99;24.06
76024;BME280;64719;52.124;6.226;2023-03-01T12:57:26;102866.59;;;15.53;25.19
76024;BME280;64719;52.124;6.226;2023-03-01T13:00:17;102857.88;;;16.20;24.88
76024;BME280;64719;52.124;6.226;2023-03-01T13:02:52;102853.44;;;15.81;24.79
76024;BME280;64719;52.124;6.226;2023-03-01T13:05:32;102847.53;;;14.88;25.70
76024;BME280;64719;52.124;6.226;2023-03-01T13:08:07;102836.88;;;16.07;24.95
76024;BME280;64719;52.124;6.226;2023-03-01T13:10:43;102831.53;;;16.81;23.36